Time;durP1;ratioP1;P1;durP2;ratioP2;P2;SDS_P1;SDS_P2;PMS_P1;PMS_P2;Temp;Humidity;BMP_temperature;BMP_pressure;BME280_temperature;BME280_humidity;BME280_pressure;Samples;Min_cycle;Max_cycle;Signal;HPM_P1;HPM_P2
2023/12/28 00:01:55;;;;;;;27.67;4.25;;;;;;;9.36;100.00;99141.56;6092695;23;20009;-94
2023/12/28 00:04:21;;;;;;;23.95;4.10;;;;;;;9.35;100.00;99128.78;6092414;23;19999;-92
2023/12/28 00:06:46;;;;;;;20.95;4.03;;;;;;;9.30;100.00;99133.47;6092016;23;20025;-94
2023/12/28 00:09:11;;;;;;;29.65;4.15;;;;;;;9.32;100.00;99145.28;6090792;23;20089;-94
2023/12/28 00:11:37;;;;;;;25.50;4.80;;;;;;;9.23;100.00;99153.66;6091166;23;20446;-93
2023/12/28 00:14:02;;;;;;;28.10;4.95;;;;;;;9.19;100.00;99157.38;6092285;23;20006;-93
2023/12/28 00:16:27;;;;;;;30.58;5.10;;;;;;;9.10;100.00;99163.22;6090685;23;20376;-92
2023/12/28 00:18:53;;;;;;;21.10;4.30;;;;;;;9.11;100.00;99164.84;6090647;23;20006;-93
2023/12/28 00:21:18;;;;;;;33.60;5.28;;;;;;;9.11;100.00;99157.13;6092414;23;20011;-93
2023/12/28 00:23:43;;;;;;;41.38;4.65;;;;;;;9.15;100.00;99174.00;6092431;23;20002;-94
2023/12/28 00:26:09;;;;;;;34.42;5.15;;;;;;;9.04;100.00;99176.53;6092433;23;20006;-93
2023/12/28 00:28:34;;;;;;;29.55;5.07;;;;;;;9.12;100.00;99176.78;6091130;23;20005;-92
2023/12/28 00:30:59;;;;;;;31.10;4.82;;;;;;;9.07;100.00;99194.31;6090776;23;20007;-92
2023/12/28 00:33:25;;;;;;;23.35;4.43;;;;;;;9.15;100.00;99172.25;6090567;23;20025;-92
2023/12/28 00:35:50;;;;;;;32.40;6.43;;;;;;;9.27;100.00;99191.16;6092450;23;20433;-93
2023/12/28 00:38:15;;;;;;;27.33;4.82;;;;;;;9.23;100.00;99194.06;6091150;23;19995;-92
2023/12/28 00:40:41;;;;;;;26.25;4.72;;;;;;;9.30;100.00;99196.06;6092392;23;20009;-91
2023/12/28 00:43:07;;;;;;;27.65;5.20;;;;;;;9.36;100.00;99200.78;6090310;23;19998;-92
2023/12/28 00:45:32;;;;;;;40.83;5.32;;;;;;;9.40;100.00;99202.19;6090637;23;20007;-92
2023/12/28 00:47:57;;;;;;;33.05;5.30;;;;;;;9.34;100.00;99207.81;6090380;23;20010;-92
2023/12/28 00:50:23;;;;;;;27.88;4.82;;;;;;;9.36;100.00;99185.34;6091523;23;20023;-92
2023/12/28 00:52:48;;;;;;;30.30;5.13;;;;;;;9.35;100.00;99200.88;6089968;23;20098;-93
2023/12/28 00:55:13;;;;;;;22.80;4.57;;;;;;;9.38;100.00;99190.34;6090259;23;20009;-92
2023/12/28 00:57:39;;;;;;;27.38;4.43;;;;;;;9.36;100.00;99200.78;6090030;23;20461;-92
2023/12/28 01:00:05;;;;;;;28.48;4.95;;;;;;;9.33;100.00;99195.84;6091824;23;20002;-92
2023/12/28 01:02:30;;;;;;;35.33;4.63;;;;;;;9.30;100.00;99190.91;6089736;23;19998;-92
2023/12/28 01:04:56;;;;;;;26.92;5.28;;;;;;;9.27;100.00;99191.16;6091291;23;20049;-92
2023/12/28 01:07:21;;;;;;;27.75;5.63;;;;;;;9.28;100.00;99174.75;6089828;23;20449;-92
2023/12/28 01:09:46;;;;;;;35.65;4.57;;;;;;;9.31;100.00;99197.69;6091363;23;20010;-92
2023/12/28 01:12:12;;;;;;;27.33;4.78;;;;;;;9.33;100.00;99198.41;6089639;23;20003;-93
2023/12/28 01:14:37;;;;;;;28.23;4.93;;;;;;;9.33;100.00;99184.72;6091144;23;20049;-93
2023/12/28 01:17:03;;;;;;;26.33;3.80;;;;;;;9.26;100.00;99168.88;6089799;23;20426;-93
2023/12/28 01:19:28;;;;;;;39.75;5.47;;;;;;;9.28;100.00;99179.09;6091211;23;20002;-93
2023/12/28 01:21:53;;;;;;;34.67;5.68;;;;;;;9.30;100.00;99185.78;6091244;23;20013;-92
2023/12/28 01:24:19;;;;;;;32.88;5.25;;;;;;;9.37;100.00;99186.16;6091118;23;20014;-93
2023/12/28 01:26:44;;;;;;;37.58;6.32;;;;;;;9.43;100.00;99176.22;6089387;23;20034;-92
2023/12/28 01:29:10;;;;;;;26.08;4.22;;;;;;;9.43;100.00;99185.69;6091177;23;20009;-92
2023/12/28 01:31:35;;;;;;;41.17;5.50;;;;;;;9.49;100.00;99199.91;6089769;23;20090;-92
2023/12/28 01:34:01;;;;;;;39.80;5.38;;;;;;;9.39;100.00;99208.28;6089873;23;20379;-93
2023/12/28 01:36:26;;;;;;;40.00;5.60;;;;;;;9.34;100.00;99236.13;6089584;23;20007;-92
2023/12/28 01:38:52;;;;;;;34.50;5.20;;;;;;;9.31;100.00;99244.03;6089685;23;20010;-92
2023/12/28 01:41:17;;;;;;;31.58;6.18;;;;;;;9.24;100.00;99255.72;6090726;23;20006;-92
2023/12/28 01:43:43;;;;;;;39.78;7.32;;;;;;;9.23;100.00;99274.69;6091016;23;20420;-92
2023/12/28 01:46:14;;;;;;;39.47;9.93;;;;;;;9.13;100.00;99258.25;6089428;23;20333;-92
2023/12/28 01:48:40;;;;;;;45.60;6.32;;;;;;;9.05;100.00;99274.22;6091186;23;20429;-91
2023/12/28 01:51:06;;;;;;;43.75;6.60;;;;;;;9.02;100.00;99269.28;6091158;23;20002;-91
2023/12/28 01:53:31;;;;;;;40.85;6.40;;;;;;;9.11;100.00;99247.22;6089418;23;20456;-92
2023/12/28 01:55:58;;;;;;;30.25;5.25;;;;;;;9.11;100.00;99244.66;6090887;23;20017;-92
2023/12/28 01:58:24;;;;;;;35.00;6.53;;;;;;;9.11;100.00;99244.66;6090974;23;20009;-92
2023/12/28 02:00:50;;;;;;;24.92;4.22;;;;;;;9.11;100.00;99253.19;6091241;23;20002;-91
2023/12/28 02:03:15;;;;;;;28.70;4.80;;;;;;;9.12;100.00;99235.97;6089662;23;20010;-92
2023/12/28 02:05:41;;;;;;;44.88;6.65;;;;;;;9.19;100.00;99250.91;6089379;23;20396;-91
2023/12/28 02:08:06;;;;;;;49.67;8.40;;;;;;;9.23;100.00;99251.50;6091145;23;20010;-91
2023/12/28 02:10:32;;;;;;;33.88;5.93;;;;;;;9.23;100.00;99264.38;6091155;23;20002;-92
2023/12/28 02:12:57;;;;;;;33.33;5.28;;;;;;;9.27;100.00;99276.13;6091129;23;20041;-91
2023/12/28 02:15:23;;;;;;;30.38;5.78;;;;;;;9.26;100.00;99274.44;6091078;23;20010;-91
2023/12/28 02:18:02;;;;;;;39.30;5.32;;;;;;;9.22;100.00;99280.78;6090951;23;20057;-91
2023/12/28 02:20:29;;;;;;;30.33;4.53;;;;;;;9.13;100.00;99269.34;6091070;23;20014;-91
2023/12/28 02:22:55;;;;;;;35.13;6.13;;;;;;;9.14;100.00;99273.56;6089767;23;20408;-91
2023/12/28 02:25:21;;;;;;;38.65;6.60;;;;;;;9.02;100.00;99258.97;6090588;23;20006;-91
2023/12/28 02:27:48;;;;;;;31.70;4.68;;;;;;;9.09;100.00;99256.81;6092664;23;20049;-91
2023/12/28 02:30:24;;;;;;;34.03;5.78;;;;;;;9.08;100.00;99250.03;6092138;23;20048;-91
2023/12/28 02:33:07;;;;;;;43.95;7.15;;;;;;;8.99;100.00;99257.44;6092332;23;20449;-91
2023/12/28 02:35:37;;;;;;;43.53;6.75;;;;;;;9.06;100.00;99264.75;6092183;23;20011;-92
2023/12/28 02:38:08;;;;;;;46.25;8.23;;;;;;;8.92;100.00;99294.81;6092397;23;20448;-91
2023/12/28 02:40:39;;;;;;;41.53;6.43;;;;;;;8.99;100.00;99303.75;6090638;23;20340;-91
2023/12/28 02:43:08;;;;;;;32.47;4.63;;;;;;;8.92;100.00;99315.41;6092268;23;20389;-91
2023/12/28 02:45:35;;;;;;;48.78;6.15;;;;;;;8.80;100.00;99316.25;6092074;23;20002;-92
2023/12/28 02:48:01;;;;;;;44.13;6.75;;;;;;;8.83;100.00;99326.34;6092146;23;20315;-91
2023/12/28 02:50:26;;;;;;;37.47;6.63;;;;;;;8.83;100.00;99340.94;6092317;23;20056;-91
2023/12/28 02:52:52;;;;;;;35.95;6.40;;;;;;;8.77;100.00;99303.59;6091757;23;20007;-91
2023/12/28 02:55:17;;;;;;;31.83;5.85;;;;;;;8.83;100.00;99336.63;6092228;23;20421;-91
2023/12/28 02:57:45;;;;;;;38.60;5.93;;;;;;;8.84;100.00;99319.44;6092270;23;20045;-91
2023/12/28 03:00:11;;;;;;;45.10;5.78;;;;;;;8.81;100.00;99327.38;6092274;23;20077;-91
2023/12/28 03:02:37;;;;;;;43.10;8.15;;;;;;;8.83;100.00;99328.91;6092387;23;20003;-91
2023/12/28 03:05:07;;;;;;;47.80;6.22;;;;;;;8.85;100.00;99319.34;6090691;23;20077;-92
2023/12/28 03:07:36;;;;;;;46.70;7.85;;;;;;;8.82;100.00;99319.53;6091879;23;20010;-92
2023/12/28 03:10:02;;;;;;;39.00;6.22;;;;;;;8.81;100.00;99307.63;6091923;23;20010;-92
2023/12/28 03:12:29;;;;;;;49.03;6.80;;;;;;;8.88;100.00;99301.13;6090388;23;20003;-91
2023/12/28 03:14:54;;;;;;;30.25;5.25;;;;;;;8.88;100.00;99293.41;6091825;23;20068;-92
2023/12/28 03:17:19;;;;;;;37.72;6.10;;;;;;;8.91;100.00;99295.75;6091716;23;20014;-92
2023/12/28 03:19:45;;;;;;;38.15;7.35;;;;;;;8.94;100.00;99313.56;6090677;23;20006;-91
2023/12/28 03:22:10;;;;;;;46.55;8.90;;;;;;;8.92;100.00;99299.97;6090473;23;20329;-92
2023/12/28 03:24:40;;;;;;;48.45;6.20;;;;;;;8.86;100.00;99284.97;6091773;23;20085;-91
2023/12/28 03:27:06;;;;;;;36.78;6.07;;;;;;;8.95;100.00;99298.97;6091562;23;20018;-91
2023/12/28 03:29:31;;;;;;;45.60;7.78;;;;;;;8.93;100.00;99287.94;6091799;23;20014;-92
2023/12/28 03:31:57;;;;;;;43.92;5.18;;;;;;;8.94;100.00;99305.84;6091888;23;19995;-91
2023/12/28 03:34:22;;;;;;;42.13;7.22;;;;;;;8.98;100.00;99304.69;6091516;23;20002;-91
2023/12/28 03:36:51;;;;;;;38.22;7.15;;;;;;;9.01;100.00;99301.09;6091685;23;20029;-91
2023/12/28 03:39:16;;;;;;;41.20;6.85;;;;;;;9.00;100.00;99291.75;6091644;23;20002;-92
2023/12/28 03:41:41;;;;;;;41.97;6.43;;;;;;;8.99;100.00;99290.06;6091858;23;20007;-92
2023/12/28 03:44:07;;;;;;;29.13;4.97;;;;;;;8.95;100.00;99292.06;6091762;23;20378;-91
2023/12/28 03:46:32;;;;;;;44.78;7.38;;;;;;;9.00;100.00;99299.47;6091423;23;20032;-91
2023/12/28 03:48:58;;;;;;;47.95;10.07;;;;;;;9.00;100.00;99291.75;6091837;23;20517;-91
2023/12/28 03:51:23;;;;;;;47.38;6.95;;;;;;;8.99;100.00;99301.19;6091688;23;20124;-93
2023/12/28 03:53:48;;;;;;;27.23;5.03;;;;;;;8.99;100.00;99316.63;6091784;23;20278;-91
2023/12/28 03:56:26;;;;;;;40.10;7.80;;;;;;;8.91;100.00;99300.91;6091749;23;20005;-91
2023/12/28 03:58:52;;;;;;;35.60;6.57;;;;;;;8.95;100.00;99320.38;6091663;23;20110;-91
2023/12/28 04:01:19;;;;;;;40.83;6.50;;;;;;;9.03;100.00;99306.97;6091944;23;20009;-93
2023/12/28 04:03:45;;;;;;;40.28;5.97;;;;;;;9.03;100.00;99308.72;6091505;23;20003;-92
2023/12/28 04:06:11;;;;;;;40.08;6.57;;;;;;;9.06;100.00;99323.94;6090349;23;20502;-91
2023/12/28 04:08:36;;;;;;;41.38;5.75;;;;;;;8.98;100.00;99321.91;6092230;23;20007;-92
2023/12/28 04:11:01;;;;;;;44.05;8.48;;;;;;;9.07;100.00;99330.72;6090195;23;20081;-91
2023/12/28 04:13:27;;;;;;;32.20;5.70;;;;;;;9.03;100.00;99319.00;6090080;23;20010;-92
2023/12/28 04:15:52;;;;;;;41.72;5.15;;;;;;;9.03;100.00;99321.59;6091400;23;20326;-92
2023/12/28 04:18:17;;;;;;;39.45;7.63;;;;;;;9.00;100.00;99313.16;6091614;23;20013;-92
2023/12/28 04:20:44;;;;;;;39.30;7.38;;;;;;;8.98;100.00;99319.34;6091658;23;19999;-92
2023/12/28 04:23:10;;;;;;;32.00;5.57;;;;;;;9.06;100.00;99316.22;6091818;23;20068;-92
2023/12/28 04:25:35;;;;;;;28.77;6.22;;;;;;;9.08;100.00;99324.66;6091461;23;20010;-92
2023/12/28 04:28:01;;;;;;;34.05;5.70;;;;;;;9.06;100.00;99340.19;6091570;23;20310;-92
2023/12/28 04:30:27;;;;;;;33.38;5.70;;;;;;;9.05;100.00;99324.88;6090035;23;20056;-91
2023/12/28 04:32:52;;;;;;;29.88;6.10;;;;;;;9.07;100.00;99328.16;6091659;23;20003;-91
2023/12/28 04:35:18;;;;;;;30.05;5.90;;;;;;;9.00;100.00;99333.72;6091455;23;20061;-91
2023/12/28 04:37:43;;;;;;;30.50;4.95;;;;;;;9.04;100.00;99336.09;6091805;23;20018;-91
2023/12/28 04:40:09;;;;;;;35.38;6.30;;;;;;;8.99;100.00;99344.13;6089794;23;20265;-92
2023/12/28 04:42:34;;;;;;;30.60;4.68;;;;;;;9.01;100.00;99342.28;6091931;23;20002;-92
2023/12/28 04:45:00;;;;;;;38.28;5.85;;;;;;;9.04;100.00;99339.47;6091463;23;20013;-92
2023/12/28 04:47:25;;;;;;;35.03;6.20;;;;;;;9.06;100.00;99362.56;6089157;23;20010;-93
2023/12/28 04:49:51;;;;;;;36.03;5.72;;;;;;;9.11;100.00;99355.34;6091448;23;20013;-93
2023/12/28 04:52:16;;;;;;;40.60;6.85;;;;;;;9.13;100.00;99343.19;6090075;23;20051;-93
2023/12/28 04:54:41;;;;;;;37.00;4.45;;;;;;;9.18;100.00;99348.84;6091600;23;20003;-92
2023/12/28 04:57:08;;;;;;;29.20;5.18;;;;;;;9.17;100.00;99367.81;6089828;23;20560;-92
2023/12/28 04:59:40;;;;;;;36.47;5.78;;;;;;;9.21;100.00;99346.84;6091460;23;20002;-92
2023/12/28 05:02:06;;;;;;;36.75;5.60;;;;;;;9.16;100.00;99348.13;6091235;23;20009;-92
2023/12/28 05:04:31;;;;;;;44.42;5.72;;;;;;;9.21;100.00;99343.47;6089747;23;20002;-92
2023/12/28 05:06:57;;;;;;;40.00;5.93;;;;;;;9.18;100.00;99344.50;6089747;23;20319;-92
2023/12/28 05:09:22;;;;;;;38.65;5.10;;;;;;;9.24;100.00;99340.66;6091746;23;20074;-91
2023/12/28 05:11:48;;;;;;;27.38;4.55;;;;;;;9.27;100.00;99342.25;6091452;23;20085;-91
2023/12/28 05:14:13;;;;;;;39.85;6.30;;;;;;;9.31;100.00;99338.50;6091356;23;20009;-92
2023/12/28 05:16:38;;;;;;;31.77;5.70;;;;;;;9.26;100.00;99343.97;6091245;23;20010;-91
2023/12/28 05:19:04;;;;;;;38.15;5.28;;;;;;;9.20;100.00;99339.25;6091371;23;20006;-92
2023/12/28 05:21:29;;;;;;;35.95;5.43;;;;;;;9.18;100.00;99357.38;6091206;23;20012;-92
2023/12/28 05:23:55;;;;;;;33.05;5.50;;;;;;;9.15;100.00;99361.94;6091267;23;20022;-92
2023/12/28 05:26:20;;;;;;;31.05;4.70;;;;;;;9.21;100.00;99366.63;6089363;23;20006;-92
2023/12/28 05:28:45;;;;;;;43.13;5.72;;;;;;;9.10;100.00;99361.44;6090231;23;20058;-92
2023/12/28 05:31:13;;;;;;;36.90;6.38;;;;;;;9.18;100.00;99362.53;6091463;23;20006;-91
2023/12/28 05:33:38;;;;;;;37.35;6.38;;;;;;;9.20;100.00;99370.16;6091524;23;20010;-91
2023/12/28 05:36:04;;;;;;;44.65;8.65;;;;;;;9.10;100.00;99351.13;6091296;23;20003;-92
2023/12/28 05:38:29;;;;;;;31.52;5.53;;;;;;;9.16;100.00;99366.94;6090049;23;20011;-91
2023/12/28 05:40:55;;;;;;;34.03;7.00;;;;;;;9.17;100.00;99365.22;6091424;23;20006;-93
2023/12/28 05:43:20;;;;;;;39.55;6.30;;;;;;;9.13;100.00;99374.91;6091525;23;20332;-91
2023/12/28 05:45:45;;;;;;;27.98;5.25;;;;;;;9.14;100.00;99379.09;6091556;23;20041;-91
2023/12/28 05:48:11;;;;;;;38.25;5.40;;;;;;;9.13;100.00;99369.75;6091374;23;20006;-91
2023/12/28 05:50:36;;;;;;;32.53;5.65;;;;;;;9.14;100.00;99380.84;6091598;23;20010;-92
2023/12/28 05:53:02;;;;;;;42.83;5.90;;;;;;;9.21;100.00;99389.81;6091366;23;19999;-92
2023/12/28 05:55:27;;;;;;;35.70;5.60;;;;;;;9.17;100.00;99385.81;6091236;23;20002;-92
2023/12/28 05:57:53;;;;;;;28.70;6.35;;;;;;;9.27;100.00;99401.47;6091384;23;20009;-91
2023/12/28 06:00:19;;;;;;;25.83;4.35;;;;;;;9.24;100.00;99392.16;6092364;23;19999;-92
2023/12/28 06:02:46;;;;;;;36.80;6.72;;;;;;;9.23;100.00;99405.16;6091085;23;20013;-91
2023/12/28 06:05:11;;;;;;;30.75;5.18;;;;;;;9.12;100.00;99403.31;6092606;23;20006;-92
2023/12/28 06:07:36;;;;;;;31.75;6.07;;;;;;;9.06;100.00;99401.97;6092876;23;20057;-92
2023/12/28 06:10:02;;;;;;;40.20;5.85;;;;;;;9.04;100.00;99374.69;6092312;23;20036;-93
2023/12/28 06:12:28;;;;;;;32.83;6.05;;;;;;;8.99;100.00;99393.84;6092513;23;20077;-92
2023/12/28 06:14:53;;;;;;;26.90;5.80;;;;;;;8.97;100.00;99415.47;6092385;23;20002;-92
2023/12/28 06:17:19;;;;;;;33.53;4.85;;;;;;;8.84;100.00;99419.78;6092384;23;20017;-92
2023/12/28 06:19:44;;;;;;;48.70;7.72;;;;;;;8.91;100.00;99427.00;6092527;23;19999;-92
2023/12/28 06:22:10;;;;;;;33.85;7.57;;;;;;;8.86;100.00;99408.47;6091056;23;20009;-92
2023/12/28 06:24:42;;;;;;;43.40;6.72;;;;;;;8.85;100.00;99419.69;6091179;23;20003;-92
2023/12/28 06:27:07;;;;;;;37.90;6.15;;;;;;;8.79;100.00;99402.09;6092443;23;20009;-92
2023/12/28 06:29:32;;;;;;;30.58;5.18;;;;;;;8.81;100.00;99400.25;6092413;23;20006;-92
2023/12/28 06:31:58;;;;;;;47.92;6.05;;;;;;;8.82;100.00;99409.59;6092176;23;20002;-93
2023/12/28 06:34:23;;;;;;;28.85;6.25;;;;;;;8.77;100.00;99409.91;6092237;23;20003;-92
2023/12/28 06:36:48;;;;;;;51.80;6.95;;;;;;;8.61;100.00;99408.44;6092155;23;20002;-92
2023/12/28 06:39:14;;;;;;;38.05;5.75;;;;;;;8.62;100.00;99417.81;6092042;23;20009;-92
2023/12/28 06:41:39;;;;;;;35.85;6.68;;;;;;;8.62;100.00;99404.97;6091791;23;20010;-92
2023/12/28 06:44:04;;;;;;;43.80;6.85;;;;;;;8.63;100.00;99409.16;6090747;23;19998;-92
2023/12/28 06:46:30;;;;;;;44.95;6.03;;;;;;;8.59;100.00;99415.47;6091876;23;20426;-92
2023/12/28 06:48:55;;;;;;;47.17;7.30;;;;;;;8.65;100.00;99409.88;6091887;23;20009;-92
2023/12/28 06:51:21;;;;;;;43.47;7.28;;;;;;;8.72;100.00;99411.13;6092038;23;20390;-91
2023/12/28 06:53:48;;;;;;;41.22;7.75;;;;;;;8.74;100.00;99417.81;6092028;23;20010;-93
2023/12/28 06:56:14;;;;;;;34.17;5.78;;;;;;;8.66;100.00;99396.13;6090441;23;20015;-92
2023/12/28 06:58:40;;;;;;;43.13;6.05;;;;;;;8.73;100.00;99408.47;6090478;23;20006;-92
2023/12/28 07:01:06;;;;;;;47.33;7.43;;;;;;;8.72;100.00;99421.44;6091902;23;20013;-92
2023/12/28 07:03:32;;;;;;;50.17;5.82;;;;;;;8.64;100.00;99418.53;6090521;23;20337;-93
2023/12/28 07:06:02;;;;;;;41.05;8.57;;;;;;;8.62;100.00;99412.66;6090508;23;20014;-92
2023/12/28 07:08:28;;;;;;;44.05;6.32;;;;;;;8.66;100.00;99416.69;6092047;23;20013;-92
2023/12/28 07:10:54;;;;;;;40.85;7.22;;;;;;;8.68;100.00;99412.25;6091530;23;20034;-92
2023/12/28 07:13:19;;;;;;;40.33;5.63;;;;;;;8.55;100.00;99404.53;6092072;23;20101;-92
2023/12/28 07:15:44;;;;;;;38.80;7.03;;;;;;;8.55;100.00;99420.78;6090269;23;20405;-92
2023/12/28 07:18:10;;;;;;;28.05;4.95;;;;;;;8.54;100.00;99408.84;6090206;23;20060;-92
2023/12/28 07:20:35;;;;;;;43.40;5.93;;;;;;;8.63;100.00;99424.59;6091918;23;20079;-92
2023/12/28 07:23:01;;;;;;;33.13;5.18;;;;;;;8.63;100.00;99429.75;6090209;23;20103;-92
2023/12/28 07:25:26;;;;;;;33.20;5.38;;;;;;;8.63;100.00;99422.84;6091976;23;20002;-92
2023/12/28 07:27:51;;;;;;;35.30;5.32;;;;;;;8.59;100.00;99436.84;6092057;23;20011;-91
2023/12/28 07:30:17;;;;;;;45.15;7.53;;;;;;;8.59;100.00;99430.88;6091749;23;20007;-92
2023/12/28 07:32:43;;;;;;;40.13;6.68;;;;;;;8.62;100.00;99448.69;6090456;23;20022;-92
2023/12/28 07:35:09;;;;;;;38.80;5.38;;;;;;;8.64;100.00;99449.41;6092275;23;20003;-92
2023/12/28 07:37:34;;;;;;;39.40;6.05;;;;;;;8.57;100.00;99430.97;6090804;23;20419;-92
2023/12/28 07:40:00;;;;;;;35.47;6.35;;;;;;;8.69;100.00;99442.22;6091945;23;20315;-93
2023/12/28 07:42:26;;;;;;;38.10;6.15;;;;;;;8.66;100.00;99437.28;6091965;23;20002;-92
2023/12/28 07:44:51;;;;;;;28.98;5.90;;;;;;;8.68;100.00;99450.84;6090063;23;20009;-93
2023/12/28 07:47:17;;;;;;;47.67;6.95;;;;;;;8.65;100.00;99440.75;6091693;23;20402;-92
2023/12/28 07:49:42;;;;;;;33.00;5.43;;;;;;;8.74;100.00;99437.59;6090279;23;20006;-92
2023/12/28 07:52:08;;;;;;;35.97;6.72;;;;;;;8.76;100.00;99443.47;6091647;23;20003;-92
2023/12/28 07:54:33;;;;;;;34.67;5.38;;;;;;;8.84;100.00;99441.19;6090247;23;20013;-92
2023/12/28 07:56:59;;;;;;;42.42;7.05;;;;;;;8.75;100.00;99437.50;6090348;23;20006;-92
2023/12/28 07:59:25;;;;;;;50.15;6.78;;;;;;;8.81;100.00;99432.88;6091953;23;20303;-92
2023/12/28 08:01:50;;;;;;;50.13;6.90;;;;;;;8.70;100.00;99452.38;6090408;23;20421;-92
2023/12/28 08:04:15;;;;;;;45.35;6.80;;;;;;;8.70;100.00;99451.56;6090130;23;20097;-93
2023/12/28 08:06:41;;;;;;;32.50;5.57;;;;;;;8.71;100.00;99484.09;6091697;23;20002;-92
2023/12/28 08:09:06;;;;;;;37.42;7.80;;;;;;;8.78;100.00;99467.34;6091842;23;20010;-91
2023/12/28 08:11:31;;;;;;;31.73;5.55;;;;;;;8.78;100.00;99467.34;6091614;23;20002;-92
2023/12/28 08:13:56;;;;;;;33.03;5.47;;;;;;;8.87;100.00;99466.72;6092037;23;20003;-92
2023/12/28 08:16:22;;;;;;;55.03;8.30;;;;;;;8.79;100.00;99456.13;6091678;23;20030;-92
2023/12/28 08:18:47;;;;;;;37.22;6.55;;;;;;;8.64;100.00;99477.72;6091617;23;20003;-92
2023/12/28 08:21:12;;;;;;;44.75;6.78;;;;;;;8.70;100.00;99472.16;6090045;23;20033;-92
2023/12/28 08:23:38;;;;;;;29.63;5.55;;;;;;;8.74;100.00;99455.59;6091502;23;20078;-91
2023/12/28 08:26:04;;;;;;;37.88;6.50;;;;;;;8.74;100.00;99471.03;6089909;23;20429;-93
2023/12/28 08:28:31;;;;;;;39.72;6.65;;;;;;;8.77;100.00;99487.06;6090126;23;20002;-93
2023/12/28 08:30:56;;;;;;;32.58;5.88;;;;;;;8.79;100.00;99484.41;6091821;23;20005;-92
2023/12/28 08:33:22;;;;;;;40.17;4.70;;;;;;;8.76;100.00;99503.44;6091665;23;20303;-93
2023/12/28 08:35:47;;;;;;;23.13;5.18;;;;;;;8.79;100.00;99481.84;6091613;23;20005;-92
2023/12/28 08:38:12;;;;;;;29.50;3.97;;;;;;;8.73;100.00;99487.38;6091823;23;20061;-93
2023/12/28 08:40:38;;;;;;;26.63;4.45;;;;;;;8.73;100.00;99487.38;6091380;23;20325;-92
2023/12/28 08:43:03;;;;;;;33.65;5.22;;;;;;;8.65;100.00;99476.75;6091426;23;19998;-92
2023/12/28 08:45:29;;;;;;;22.15;4.80;;;;;;;8.70;100.00;99495.31;6089778;23;20085;-92
2023/12/28 08:47:54;;;;;;;33.97;4.35;;;;;;;8.75;100.00;99501.81;6091489;23;20456;-92
2023/12/28 08:50:19;;;;;;;35.63;6.57;;;;;;;8.77;100.00;99494.78;6091509;23;20089;-92
2023/12/28 08:52:45;;;;;;;30.15;5.78;;;;;;;8.76;100.00;99494.91;6091435;23;20422;-92
2023/12/28 08:55:10;;;;;;;36.35;5.50;;;;;;;8.79;100.00;99485.22;6091410;23;20365;-92
2023/12/28 08:57:36;;;;;;;25.25;4.55;;;;;;;8.83;100.00;99485.88;6091555;23;20041;-92
2023/12/28 09:00:02;;;;;;;31.30;5.85;;;;;;;8.82;100.00;99484.22;6091522;23;20006;-92
2023/12/28 09:02:28;;;;;;;28.98;5.30;;;;;;;8.78;100.00;99482.78;6089924;23;20002;-91
2023/12/28 09:04:54;;;;;;;36.13;5.45;;;;;;;8.82;100.00;99493.69;6089736;23;20448;-92
2023/12/28 09:07:19;;;;;;;29.85;4.10;;;;;;;8.79;100.00;99481.84;6091155;23;20003;-92
2023/12/28 09:09:45;;;;;;;28.58;5.50;;;;;;;8.88;100.00;99483.81;6091221;23;20029;-93
2023/12/28 09:12:11;;;;;;;31.40;5.05;;;;;;;8.84;100.00;99487.50;6091366;23;20009;-92
2023/12/28 09:14:36;;;;;;;32.55;4.70;;;;;;;8.89;100.00;99480.31;6091473;23;20077;-92
2023/12/28 09:17:02;;;;;;;27.55;4.95;;;;;;;8.95;100.00;99479.91;6091294;23;20034;-91
2023/12/28 09:19:27;;;;;;;41.08;6.00;;;;;;;9.04;100.00;99487.94;6091231;23;20053;-92
2023/12/28 09:21:53;;;;;;;32.03;5.15;;;;;;;9.02;100.00;99475.16;6091005;23;20007;-92
2023/12/28 09:24:18;;;;;;;27.40;4.57;;;;;;;9.09;100.00;99471.25;6091125;23;20030;-92
2023/12/28 09:26:44;;;;;;;29.58;3.90;;;;;;;9.11;100.00;99481.47;6091205;23;20101;-91
2023/12/28 09:29:09;;;;;;;36.42;4.65;;;;;;;9.00;100.00;99475.28;6089616;23;20006;-92
2023/12/28 09:31:35;;;;;;;35.05;6.05;;;;;;;9.09;100.00;99483.31;6091140;23;20006;-91
2023/12/28 09:34:00;;;;;;;31.27;4.22;;;;;;;9.12;100.00;99486.53;6091927;23;20421;-91
2023/12/28 09:36:25;;;;;;;33.28;5.82;;;;;;;9.09;100.00;99475.59;6090591;23;20091;-91
2023/12/28 09:38:51;;;;;;;38.28;5.30;;;;;;;9.17;100.00;99493.94;6092183;23;20003;-92
2023/12/28 09:41:22;;;;;;;37.50;5.28;;;;;;;9.18;100.00;99495.59;6092108;23;19999;-91
2023/12/28 09:43:58;;;;;;;27.73;5.07;;;;;;;9.29;100.00;99503.44;6092221;23;20010;-92
2023/12/28 09:46:23;;;;;;;25.92;4.43;;;;;;;9.30;100.00;99484.47;6091989;23;20082;-92
2023/12/28 09:48:49;;;;;;;32.55;4.65;;;;;;;9.36;100.00;99496.94;6092370;23;20022;-92
2023/12/28 09:51:16;;;;;;;27.98;4.55;;;;;;;9.40;100.00;99498.34;6092286;23;20002;-91
2023/12/28 09:53:44;;;;;;;30.13;5.50;;;;;;;9.38;100.00;99502.78;6092173;23;20318;-92
2023/12/28 09:56:09;;;;;;;21.88;4.10;;;;;;;9.39;100.00;99493.31;6092248;23;20003;-92
2023/12/28 09:58:36;;;;;;;26.15;4.50;;;;;;;9.50;100.00;99492.59;6092187;23;20002;-91
2023/12/28 10:01:03;;;;;;;23.48;4.70;;;;;;;9.54;100.00;99488.88;6092299;23;20074;-92
2023/12/28 10:03:28;;;;;;;32.00;5.28;;;;;;;9.75;100.00;99477.06;6092208;23;20005;-92
2023/12/28 10:05:54;;;;;;;28.70;4.10;;;;;;;9.83;100.00;99487.69;6091995;23;20002;-92
2023/12/28 10:08:19;;;;;;;23.23;4.53;;;;;;;9.90;100.00;99485.53;6092007;23;20017;-91
2023/12/28 10:10:50;;;;;;;33.13;5.70;;;;;;;10.08;100.00;99489.38;6090891;23;20025;-91
2023/12/28 10:13:16;;;;;;;37.10;5.40;;;;;;;10.33;100.00;99466.19;6090705;23;20003;-92
2023/12/28 10:15:43;;;;;;;26.92;4.50;;;;;;;10.43;100.00;99475.72;6091747;23;20048;-93
2023/12/28 10:18:09;;;;;;;22.05;4.18;;;;;;;10.68;100.00;99468.78;6092128;23;20441;-91
2023/12/28 10:20:34;;;;;;;30.08;5.53;;;;;;;10.57;100.00;99476.50;6090684;23;20007;-93
2023/12/28 10:23:00;;;;;;;28.73;3.85;;;;;;;10.60;100.00;99476.28;6090597;23;20018;-91
2023/12/28 10:25:27;;;;;;;25.48;5.80;;;;;;;11.03;100.00;99475.69;6092595;23;20007;-91
2023/12/28 10:27:53;;;;;;;30.50;6.03;;;;;;;10.69;100.00;99485.94;6090393;23;20014;-92
2023/12/28 10:30:20;;;;;;;39.22;7.28;;;;;;;10.58;100.00;99478.13;6091986;23;20007;-91
2023/12/28 10:32:46;;;;;;;30.30;5.10;;;;;;;10.54;100.00;99469.81;6092060;23;20129;-92
2023/12/28 10:35:11;;;;;;;30.15;5.13;;;;;;;10.38;100.00;99456.38;6090099;23;20441;-93
2023/12/28 10:37:41;;;;;;;26.00;4.60;;;;;;;10.24;100.00;99467.63;6092335;23;20002;-92
2023/12/28 10:40:11;;;;;;;24.90;5.40;;;;;;;10.14;100.00;99454.59;6092258;23;20006;-93
2023/12/28 10:42:54;;;;;;;31.50;4.53;;;;;;;10.10;100.00;99445.44;6092250;23;20009;-92
2023/12/28 10:45:23;;;;;;;26.98;4.55;;;;;;;10.17;100.00;99451.81;6091938;23;20014;-91
2023/12/28 10:47:58;;;;;;;25.70;4.72;;;;;;;10.41;100.00;99445.81;6092119;23;20017;-91
2023/12/28 10:50:28;;;;;;;26.45;4.18;;;;;;;10.52;100.00;99445.06;6091933;23;20034;-92
2023/12/28 10:53:00;;;;;;;26.20;4.65;;;;;;;10.60;100.00;99440.97;6092055;23;20076;-92
2023/12/28 10:55:31;;;;;;;30.65;4.13;;;;;;;10.53;100.00;99432.03;6091872;23;20012;-91
2023/12/28 10:58:05;;;;;;;20.92;4.25;;;;;;;10.55;100.00;99439.66;6091859;23;20010;-91
2023/12/28 11:00:36;;;;;;;21.73;3.85;;;;;;;10.52;100.00;99438.13;6091948;23;20007;-91
2023/12/28 11:03:09;;;;;;;22.35;3.70;;;;;;;10.75;100.00;99438.19;6090571;23;20002;-91
2023/12/28 11:05:35;;;;;;;26.52;3.47;;;;;;;10.75;100.00;99443.34;6091874;23;20014;-92
2023/12/28 11:08:03;;;;;;;24.92;4.63;;;;;;;10.96;100.00;99440.94;6091907;23;20014;-93
2023/12/28 11:10:30;;;;;;;25.45;4.38;;;;;;;10.98;100.00;99445.06;6092008;23;20064;-91
2023/12/28 11:12:56;;;;;;;31.40;4.18;;;;;;;11.09;100.00;99436.50;6092093;23;20006;-91
2023/12/28 11:15:23;;;;;;;33.13;6.38;;;;;;;11.22;100.00;99446.72;6092046;23;20033;-91
2023/12/28 11:17:49;;;;;;;25.27;4.30;;;;;;;11.17;100.00;99446.22;6092127;23;20003;-92
2023/12/28 11:20:15;;;;;;;24.40;3.97;;;;;;;11.20;100.00;99427.94;6092017;23;20048;-92